sensor_id;sensor_type;location;lat;lon;timestamp;pressure;altitude;pressure_sealevel;temperature;humidity
85735;BME280;76179;42.316;22.856;2024-03-23T00:53:15;94428.22;;;3.06;58.50
85735;BME280;76179;42.316;22.856;2024-03-23T00:55:41;94452.44;;;3.13;59.05
85735;BME280;76179;42.316;22.856;2024-03-23T00:58:07;94449.38;;;3.15;59.57
85735;BME280;76179;42.316;22.856;2024-03-23T01:00:33;94452.41;;;3.06;58.98
85735;BME280;76179;42.316;22.856;2024-03-23T01:02:58;94438.94;;;2.85;58.63
85735;BME280;76179;42.316;22.856;2024-03-23T01:05:23;94455.81;;;2.85;59.10
85735;BME280;76179;42.316;22.856;2024-03-23T01:07:49;94443.91;;;2.83;59.84
85735;BME280;76179;42.316;22.856;2024-03-23T01:10:15;94443.50;;;2.77;60.02
85735;BME280;76179;42.316;22.856;2024-03-23T01:12:40;94451.22;;;2.86;60.27
85735;BME280;76179;42.316;22.856;2024-03-23T01:15:06;94446.19;;;2.74;59.38
85735;BME280;76179;42.316;22.856;2024-03-23T01:17:31;94444.59;;;2.65;60.37
85735;BME280;76179;42.316;22.856;2024-03-23T01:19:57;94441.16;;;2.61;60.62
85735;BME280;76179;42.316;22.856;2024-03-23T01:22:22;94431.44;;;2.36;60.74
85735;BME280;76179;42.316;22.856;2024-03-23T01:24:48;94414.88;;;2.19;61.30
85735;BME280;76179;42.316;22.856;2024-03-23T01:27:13;94437.53;;;2.25;61.58
85735;BME280;76179;42.316;22.856;2024-03-23T01:29:39;94444.09;;;2.31;61.75
85735;BME280;76179;42.316;22.856;2024-03-23T01:32:05;94444.13;;;2.42;62.35
85735;BME280;76179;42.316;22.856;2024-03-23T01:34:30;94430.69;;;2.39;61.76
85735;BME280;76179;42.316;22.856;2024-03-23T01:36:56;94444.03;;;2.21;61.61
85735;BME280;76179;42.316;22.856;2024-03-23T01:39:21;94449.72;;;2.09;62.08
85735;BME280;76179;42.316;22.856;2024-03-23T01:41:46;94439.00;;;2.12;62.87
85735;BME280;76179;42.316;22.856;2024-03-23T01:44:12;94452.13;;;2.24;62.53
85735;BME280;76179;42.316;22.856;2024-03-23T01:46:37;94453.25;;;2.27;62.34
85735;BME280;76179;42.316;22.856;2024-03-23T01:49:05;94450.63;;;2.30;62.67
85735;BME280;76179;42.316;22.856;2024-03-23T01:51:30;94446.41;;;2.37;61.51
85735;BME280;76179;42.316;22.856;2024-03-23T01:53:56;94444.88;;;2.36;61.43
85735;BME280;76179;42.316;22.856;2024-03-23T01:56:22;94447.59;;;2.39;60.81
85735;BME280;76179;42.316;22.856;2024-03-23T01:58:48;94446.78;;;2.35;61.10
85735;BME280;76179;42.316;22.856;2024-03-23T02:01:13;94430.25;;;2.22;61.03
85735;BME280;76179;42.316;22.856;2024-03-23T02:03:38;94447.09;;;2.19;61.77
85735;BME280;76179;42.316;22.856;2024-03-23T02:06:04;94451.28;;;2.17;61.07
85735;BME280;76179;42.316;22.856;2024-03-23T02:08:32;94441.28;;;2.10;61.86
85735;BME280;76179;42.316;22.856;2024-03-23T02:10:58;94453.22;;;2.16;61.56
85735;BME280;76179;42.316;22.856;2024-03-23T02:13:24;94455.88;;;2.13;61.51
85735;BME280;76179;42.316;22.856;2024-03-23T02:15:49;94451.25;;;2.06;61.61
85735;BME280;76179;42.316;22.856;2024-03-23T02:18:14;94447.38;;;2.04;61.14
85735;BME280;76179;42.316;22.856;2024-03-23T02:20:40;94442.38;;;1.99;62.21
85735;BME280;76179;42.316;22.856;2024-03-23T02:23:06;94447.78;;;2.06;61.89
85735;BME280;76179;42.316;22.856;2024-03-23T02:25:37;94442.38;;;1.99;61.55
85735;BME280;76179;42.316;22.856;2024-03-23T02:28:03;94464.59;;;1.96;61.22
85735;BME280;76179;42.316;22.856;2024-03-23T02:30:28;94446.13;;;1.87;61.56
85735;BME280;76179;42.316;22.856;2024-03-23T02:32:54;94452.22;;;1.80;61.25
85735;BME280;76179;42.316;22.856;2024-03-23T02:35:19;94461.41;;;1.76;62.90
85735;BME280;76179;42.316;22.856;2024-03-23T02:37:46;94431.38;;;1.60;62.55
85735;BME280;76179;42.316;22.856;2024-03-23T02:40:11;94437.63;;;1.27;63.50
85735;BME280;76179;42.316;22.856;2024-03-23T02:42:37;94420.41;;;1.28;63.74
85735;BME280;76179;42.316;22.856;2024-03-23T02:45:02;94429.31;;;1.39;63.58
85735;BME280;76179;42.316;22.856;2024-03-23T02:47:30;94441.63;;;1.47;63.15
85735;BME280;76179;42.316;22.856;2024-03-23T02:49:55;94450.59;;;1.21;63.86
85735;BME280;76179;42.316;22.856;2024-03-23T02:52:20;94434.09;;;1.15;64.65
85735;BME280;76179;42.316;22.856;2024-03-23T02:54:46;94454.91;;;1.33;65.09
85735;BME280;76179;42.316;22.856;2024-03-23T02:57:11;94424.22;;;1.23;64.21
85735;BME280;76179;42.316;22.856;2024-03-23T02:59:36;94445.59;;;1.16;64.41
85735;BME280;76179;42.316;22.856;2024-03-23T03:02:02;94441.25;;;1.04;64.96
85735;BME280;76179;42.316;22.856;2024-03-23T03:04:29;94452.84;;;1.15;65.58
85735;BME280;76179;42.316;22.856;2024-03-23T03:06:55;94446.72;;;1.15;65.81
85735;BME280;76179;42.316;22.856;2024-03-23T03:09:20;94431.97;;;0.95;65.87
85735;BME280;76179;42.316;22.856;2024-03-23T03:11:46;94450.94;;;1.16;66.27
85735;BME280;76179;42.316;22.856;2024-03-23T03:14:11;94461.25;;;1.14;66.45
85735;BME280;76179;42.316;22.856;2024-03-23T03:16:37;94448.88;;;1.02;65.76
85735;BME280;76179;42.316;22.856;2024-03-23T03:19:03;94447.03;;;1.10;66.37
85735;BME280;76179;42.316;22.856;2024-03-23T03:21:28;94466.38;;;1.30;66.14
85735;BME280;76179;42.316;22.856;2024-03-23T03:23:54;94466.34;;;1.26;66.23
85735;BME280;76179;42.316;22.856;2024-03-23T03:26:21;94452.56;;;1.28;66.42
85735;BME280;76179;42.316;22.856;2024-03-23T03:28:47;94461.09;;;1.40;65.44
85735;BME280;76179;42.316;22.856;2024-03-23T03:31:15;94453.06;;;1.40;65.49
85735;BME280;76179;42.316;22.856;2024-03-23T03:33:40;94446.09;;;1.32;64.89
85735;BME280;76179;42.316;22.856;2024-03-23T03:36:05;94450.81;;;1.46;64.85
85735;BME280;76179;42.316;22.856;2024-03-23T03:38:31;94455.78;;;1.47;65.49
85735;BME280;76179;42.316;22.856;2024-03-23T03:40:56;94455.06;;;1.47;64.34
85735;BME280;76179;42.316;22.856;2024-03-23T03:43:24;94451.59;;;1.46;64.89
85735;BME280;76179;42.316;22.856;2024-03-23T03:45:57;94445.06;;;1.47;64.97
85735;BME280;76179;42.316;22.856;2024-03-23T03:48:22;94450.41;;;1.44;64.05
85735;BME280;76179;42.316;22.856;2024-03-23T03:50:49;94450.06;;;1.49;63.74
85735;BME280;76179;42.316;22.856;2024-03-23T03:53:14;94443.03;;;1.34;64.36
85735;BME280;76179;42.316;22.856;2024-03-23T03:55:40;94456.91;;;1.43;63.94
85735;BME280;76179;42.316;22.856;2024-03-23T03:58:05;94467.28;;;1.44;63.16
85735;BME280;76179;42.316;22.856;2024-03-23T04:00:31;94444.22;;;1.36;63.81
85735;BME280;76179;42.316;22.856;2024-03-23T04:02:56;94450.97;;;1.20;63.54
85735;BME280;76179;42.316;22.856;2024-03-23T04:05:22;94451.94;;;1.01;64.13
85735;BME280;76179;42.316;22.856;2024-03-23T04:07:47;94446.84;;;0.89;64.71
85735;BME280;76179;42.316;22.856;2024-03-23T04:10:13;94457.19;;;0.90;64.70
85735;BME280;76179;42.316;22.856;2024-03-23T04:12:39;94458.69;;;0.88;65.19
85735;BME280;76179;42.316;22.856;2024-03-23T04:15:05;94444.91;;;0.52;65.88
85735;BME280;76179;42.316;22.856;2024-03-23T04:17:31;94466.56;;;0.40;66.92
85735;BME280;76179;42.316;22.856;2024-03-23T04:19:58;94456.22;;;0.38;67.54
85735;BME280;76179;42.316;22.856;2024-03-23T04:22:24;94461.25;;;0.44;67.31
85735;BME280;76179;42.316;22.856;2024-03-23T04:24:54;94457.88;;;0.50;67.04
85735;BME280;76179;42.316;22.856;2024-03-23T04:27:20;94467.97;;;0.60;67.29
85735;BME280;76179;42.316;22.856;2024-03-23T04:29:49;94461.69;;;0.49;67.62
85735;BME280;76179;42.316;22.856;2024-03-23T04:32:14;94468.00;;;0.64;67.77
85735;BME280;76179;42.316;22.856;2024-03-23T04:34:40;94478.75;;;0.67;66.82
85735;BME280;76179;42.316;22.856;2024-03-23T04:37:05;94457.84;;;0.47;67.14
85735;BME280;76179;42.316;22.856;2024-03-23T04:39:31;94455.25;;;0.24;67.58
85735;BME280;76179;42.316;22.856;2024-03-23T04:41:56;94462.94;;;0.25;68.95
85735;BME280;76179;42.316;22.856;2024-03-23T04:44:21;94473.22;;;0.23;68.82
85735;BME280;76179;42.316;22.856;2024-03-23T04:46:47;94473.00;;;0.35;69.77
85735;BME280;76179;42.316;22.856;2024-03-23T04:49:12;94477.16;;;0.29;69.92
85735;BME280;76179;42.316;22.856;2024-03-23T04:51:38;94477.66;;;0.38;70.48
85735;BME280;76179;42.316;22.856;2024-03-23T04:54:03;94464.75;;;0.48;70.20
85735;BME280;76179;42.316;22.856;2024-03-23T04:56:29;94466.00;;;0.57;69.40
85735;BME280;76179;42.316;22.856;2024-03-23T04:58:55;94447.63;;;0.56;69.66
85735;BME280;76179;42.316;22.856;2024-03-23T05:01:26;94483.50;;;0.81;70.41
85735;BME280;76179;42.316;22.856;2024-03-23T05:03:51;94469.47;;;0.91;68.23
85735;BME280;76179;42.316;22.856;2024-03-23T05:06:18;94437.66;;;0.90;69.51
85735;BME280;76179;42.316;22.856;2024-03-23T05:08:43;94441.19;;;0.97;68.03
85735;BME280;76179;42.316;22.856;2024-03-23T05:11:09;94475.97;;;1.31;67.46
85735;BME280;76179;42.316;22.856;2024-03-23T05:13:35;94476.47;;;1.43;67.13
85735;BME280;76179;42.316;22.856;2024-03-23T05:16:00;94485.75;;;1.57;67.66
85735;BME280;76179;42.316;22.856;2024-03-23T05:18:26;94465.84;;;1.54;65.31
85735;BME280;76179;42.316;22.856;2024-03-23T05:20:57;94478.22;;;1.73;66.34
85735;BME280;76179;42.316;22.856;2024-03-23T05:23:23;94465.19;;;1.71;65.79
85735;BME280;76179;42.316;22.856;2024-03-23T05:25:48;94464.09;;;1.79;65.92
85735;BME280;76179;42.316;22.856;2024-03-23T05:28:13;94475.69;;;1.94;65.92
85735;BME280;76179;42.316;22.856;2024-03-23T05:30:39;94474.59;;;2.02;64.62
85735;BME280;76179;42.316;22.856;2024-03-23T05:33:05;94475.75;;;2.01;64.77
85735;BME280;76179;42.316;22.856;2024-03-23T05:35:31;94487.34;;;2.16;64.66
85735;BME280;76179;42.316;22.856;2024-03-23T05:37:57;94484.34;;;2.24;64.03
85735;BME280;76179;42.316;22.856;2024-03-23T05:40:24;94450.53;;;2.16;63.72
85735;BME280;76179;42.316;22.856;2024-03-23T05:42:49;94447.09;;;2.16;63.26
85735;BME280;76179;42.316;22.856;2024-03-23T05:45:18;94485.22;;;2.46;64.51
85735;BME280;76179;42.316;22.856;2024-03-23T05:47:43;94476.41;;;2.49;63.94
85735;BME280;76179;42.316;22.856;2024-03-23T05:50:10;94490.25;;;2.58;64.20
85735;BME280;76179;42.316;22.856;2024-03-23T05:52:38;94471.44;;;2.58;64.41
85735;BME280;76179;42.316;22.856;2024-03-23T05:55:04;94472.28;;;2.69;62.85
85735;BME280;76179;42.316;22.856;2024-03-23T05:57:29;94468.84;;;2.76;63.32
85735;BME280;76179;42.316;22.856;2024-03-23T05:59:55;94468.44;;;2.70;63.43
85735;BME280;76179;42.316;22.856;2024-03-23T06:02:20;94443.34;;;2.42;65.46
85735;BME280;76179;42.316;22.856;2024-03-23T06:04:46;94472.69;;;2.79;63.53
85735;BME280;76179;42.316;22.856;2024-03-23T06:07:11;94476.13;;;2.76;64.64
85735;BME280;76179;42.316;22.856;2024-03-23T06:09:41;94471.56;;;2.90;63.41
85735;BME280;76179;42.316;22.856;2024-03-23T06:12:07;94473.94;;;3.13;63.11
85735;BME280;76179;42.316;22.856;2024-03-23T06:14:34;94465.13;;;3.20;61.25
85735;BME280;76179;42.316;22.856;2024-03-23T06:17:00;94472.06;;;3.24;62.06
85735;BME280;76179;42.316;22.856;2024-03-23T06:19:26;94477.84;;;3.40;61.58
85735;BME280;76179;42.316;22.856;2024-03-23T06:21:55;94455.53;;;3.29;62.03
85735;BME280;76179;42.316;22.856;2024-03-23T06:24:24;94480.94;;;3.53;61.50
85735;BME280;76179;42.316;22.856;2024-03-23T06:26:52;94469.38;;;3.45;63.01
85735;BME280;76179;42.316;22.856;2024-03-23T06:29:17;94468.63;;;3.66;63.17
85735;BME280;76179;42.316;22.856;2024-03-23T06:31:42;94456.31;;;3.58;62.51
85735;BME280;76179;42.316;22.856;2024-03-23T06:34:08;94470.53;;;3.73;61.81
85735;BME280;76179;42.316;22.856;2024-03-23T06:36:34;94462.84;;;3.82;62.01
85735;BME280;76179;42.316;22.856;2024-03-23T06:38:59;94473.22;;;3.98;63.13
85735;BME280;76179;42.316;22.856;2024-03-23T06:41:25;94453.22;;;3.95;61.86
85735;BME280;76179;42.316;22.856;2024-03-23T06:43:52;94462.06;;;4.13;61.58
85735;BME280;76179;42.316;22.856;2024-03-23T06:46:20;94442.03;;;4.21;61.23
85735;BME280;76179;42.316;22.856;2024-03-23T06:48:45;94460.44;;;4.44;61.88
85735;BME280;76179;42.316;22.856;2024-03-23T06:51:11;94462.72;;;4.60;61.21
85735;BME280;76179;42.316;22.856;2024-03-23T06:53:36;94468.44;;;4.76;60.61
85735;BME280;76179;42.316;22.856;2024-03-23T06:56:01;94469.19;;;4.77;60.71
85735;BME280;76179;42.316;22.856;2024-03-23T06:58:27;94466.09;;;4.82;60.64
85735;BME280;76179;42.316;22.856;2024-03-23T07:00:52;94452.19;;;4.94;60.60
85735;BME280;76179;42.316;22.856;2024-03-23T07:03:18;94453.66;;;5.06;60.52
85735;BME280;76179;42.316;22.856;2024-03-23T07:05:43;94457.84;;;5.17;59.75
85735;BME280;76179;42.316;22.856;2024-03-23T07:08:09;94462.34;;;5.38;60.41
85735;BME280;76179;42.316;22.856;2024-03-23T07:10:34;94461.91;;;5.47;60.09
85735;BME280;76179;42.316;22.856;2024-03-23T07:13:00;94466.88;;;5.52;60.67
85735;BME280;76179;42.316;22.856;2024-03-23T07:15:26;94438.72;;;5.53;58.21
85735;BME280;76179;42.316;22.856;2024-03-23T07:17:51;94450.94;;;5.68;59.20
85735;BME280;76179;42.316;22.856;2024-03-23T07:20:21;94453.91;;;5.88;57.97
85735;BME280;76179;42.316;22.856;2024-03-23T07:22:47;94444.06;;;6.08;56.67
85735;BME280;76179;42.316;22.856;2024-03-23T07:25:12;94458.72;;;6.10;57.62
85735;BME280;76179;42.316;22.856;2024-03-23T07:27:38;94436.28;;;6.17;56.88
85735;BME280;76179;42.316;22.856;2024-03-23T07:30:03;94445.03;;;6.28;56.94
85735;BME280;76179;42.316;22.856;2024-03-23T07:32:29;94447.56;;;6.46;56.79
85735;BME280;76179;42.316;22.856;2024-03-23T07:34:54;94444.00;;;6.52;55.68
85735;BME280;76179;42.316;22.856;2024-03-23T07:37:19;94446.97;;;6.65;55.66
85735;BME280;76179;42.316;22.856;2024-03-23T07:39:45;94448.44;;;6.73;56.06
85735;BME280;76179;42.316;22.856;2024-03-23T07:42:10;94415.63;;;6.68;54.93
85735;BME280;76179;42.316;22.856;2024-03-23T07:44:36;94450.31;;;7.07;55.84
85735;BME280;76179;42.316;22.856;2024-03-23T07:47:01;94441.22;;;7.20;54.72
85735;BME280;76179;42.316;22.856;2024-03-23T07:49:27;94442.22;;;7.33;56.52
85735;BME280;76179;42.316;22.856;2024-03-23T07:51:53;94444.72;;;7.48;55.24
85735;BME280;76179;42.316;22.856;2024-03-23T07:54:18;94430.63;;;7.60;55.92
85735;BME280;76179;42.316;22.856;2024-03-23T07:56:44;94434.88;;;7.84;54.64
85735;BME280;76179;42.316;22.856;2024-03-23T07:59:09;94438.59;;;7.94;54.32
85735;BME280;76179;42.316;22.856;2024-03-23T08:01:35;94421.53;;;7.97;54.48
85735;BME280;76179;42.316;22.856;2024-03-23T08:04:00;94424.44;;;8.06;54.70
85735;BME280;76179;42.316;22.856;2024-03-23T08:06:26;94430.50;;;8.37;54.30
85735;BME280;76179;42.316;22.856;2024-03-23T08:08:54;94421.16;;;8.41;54.25
85735;BME280;76179;42.316;22.856;2024-03-23T08:11:31;94422.56;;;8.49;53.41
85735;BME280;76179;42.316;22.856;2024-03-23T08:13:57;94415.72;;;8.41;53.67
85735;BME280;76179;42.316;22.856;2024-03-23T08:16:23;94424.84;;;8.71;54.88
85735;BME280;76179;42.316;22.856;2024-03-23T08:18:51;94417.59;;;8.84;52.79
85735;BME280;76179;42.316;22.856;2024-03-23T08:21:17;94413.56;;;8.92;54.52
85735;BME280;76179;42.316;22.856;2024-03-23T08:23:43;94411.97;;;8.95;53.38
85735;BME280;76179;42.316;22.856;2024-03-23T08:26:10;94415.97;;;9.26;52.73
85735;BME280;76179;42.316;22.856;2024-03-23T08:28:36;94404.69;;;9.44;51.61
85735;BME280;76179;42.316;22.856;2024-03-23T08:31:03;94406.41;;;9.70;51.66
85735;BME280;76179;42.316;22.856;2024-03-23T08:33:29;94394.34;;;9.71;49.43
85735;BME280;76179;42.316;22.856;2024-03-23T08:35:56;94404.88;;;10.01;50.38
85735;BME280;76179;42.316;22.856;2024-03-23T08:38:25;94399.78;;;10.03;50.15
85735;BME280;76179;42.316;22.856;2024-03-23T08:41:08;94401.63;;;10.07;49.85
85735;BME280;76179;42.316;22.856;2024-03-23T08:43:41;94386.44;;;9.93;48.99
85735;BME280;76179;42.316;22.856;2024-03-23T08:46:08;94406.91;;;10.14;48.46
85735;BME280;76179;42.316;22.856;2024-03-23T08:48:35;94398.38;;;10.44;48.30
85735;BME280;76179;42.316;22.856;2024-03-23T08:51:04;94394.22;;;10.68;46.77
85735;BME280;76179;42.316;22.856;2024-03-23T08:53:30;94393.28;;;10.88;48.67
85735;BME280;76179;42.316;22.856;2024-03-23T08:55:56;94380.09;;;10.86;46.30
85735;BME280;76179;42.316;22.856;2024-03-23T08:58:26;94388.06;;;10.93;46.62
85735;BME280;76179;42.316;22.856;2024-03-23T09:00:53;94385.25;;;11.09;45.31
85735;BME280;76179;42.316;22.856;2024-03-23T09:03:20;94369.81;;;11.06;44.89
85735;BME280;76179;42.316;22.856;2024-03-23T09:05:46;94365.66;;;11.14;44.71
85735;BME280;76179;42.316;22.856;2024-03-23T09:08:11;94356.31;;;11.28;44.44
85735;BME280;76179;42.316;22.856;2024-03-23T09:10:40;94367.75;;;11.61;44.34
85735;BME280;76179;42.316;22.856;2024-03-23T09:13:06;94347.13;;;11.60;43.61
85735;BME280;76179;42.316;22.856;2024-03-23T09:15:37;94353.97;;;11.65;43.69
85735;BME280;76179;42.316;22.856;2024-03-23T09:18:03;94351.03;;;11.72;42.38
85735;BME280;76179;42.316;22.856;2024-03-23T09:20:28;94359.00;;;11.79;42.62
85735;BME280;76179;42.316;22.856;2024-03-23T09:22:53;94352.53;;;11.98;44.02
85735;BME280;76179;42.316;22.856;2024-03-23T09:25:19;94331.59;;;11.95;41.85
85735;BME280;76179;42.316;22.856;2024-03-23T09:27:47;94328.13;;;12.16;40.25
85735;BME280;76179;42.316;22.856;2024-03-23T09:30:13;94336.47;;;12.34;40.48
85735;BME280;76179;42.316;22.856;2024-03-23T09:32:39;94317.25;;;12.38;40.59
85735;BME280;76179;42.316;22.856;2024-03-23T09:35:05;94330.66;;;12.67;40.40
85735;BME280;76179;42.316;22.856;2024-03-23T09:37:30;94322.53;;;12.76;40.21
85735;BME280;76179;42.316;22.856;2024-03-23T09:39:55;94322.25;;;12.83;38.90
85735;BME280;76179;42.316;22.856;2024-03-23T09:42:21;94306.03;;;12.89;37.25
85735;BME280;76179;42.316;22.856;2024-03-23T09:44:47;94299.47;;;13.08;37.77
85735;BME280;76179;42.316;22.856;2024-03-23T09:47:16;94299.25;;;13.24;36.79
85735;BME280;76179;42.316;22.856;2024-03-23T09:49:41;94292.44;;;13.29;37.58
85735;BME280;76179;42.316;22.856;2024-03-23T09:52:07;94292.00;;;13.30;36.11
85735;BME280;76179;42.316;22.856;2024-03-23T09:54:33;94287.31;;;13.40;36.70
85735;BME280;76179;42.316;22.856;2024-03-23T09:56:58;94267.75;;;13.51;36.82
85735;BME280;76179;42.316;22.856;2024-03-23T09:59:24;94278.06;;;13.46;35.24
85735;BME280;76179;42.316;22.856;2024-03-23T10:01:52;94266.25;;;13.59;33.74
85735;BME280;76179;42.316;22.856;2024-03-23T10:04:40;94269.13;;;13.64;34.53
85735;BME280;76179;42.316;22.856;2024-03-23T10:07:19;94250.28;;;13.57;35.60
85735;BME280;76179;42.316;22.856;2024-03-23T10:09:45;94252.59;;;13.77;34.84
85735;BME280;76179;42.316;22.856;2024-03-23T10:12:13;94259.44;;;13.81;34.47
85735;BME280;76179;42.316;22.856;2024-03-23T10:14:40;94223.56;;;13.79;34.61
85735;BME280;76179;42.316;22.856;2024-03-23T10:19:47;94244.84;;;14.30;33.10
85735;BME280;76179;42.316;22.856;2024-03-23T10:22:20;94242.88;;;14.49;33.54
85735;BME280;76179;42.316;22.856;2024-03-23T10:24:46;94220.47;;;14.69;33.03
85735;BME280;76179;42.316;22.856;2024-03-23T10:27:29;94226.75;;;15.02;31.59
85735;BME280;76179;42.316;22.856;2024-03-23T10:30:08;94219.66;;;15.19;28.99
85735;BME280;76179;42.316;22.856;2024-03-23T10:32:33;94226.69;;;15.44;28.99
85735;BME280;76179;42.316;22.856;2024-03-23T10:35:18;94221.94;;;15.54;30.97
85735;BME280;76179;42.316;22.856;2024-03-23T10:37:44;94218.44;;;15.77;29.63
85735;BME280;76179;42.316;22.856;2024-03-23T10:40:12;94206.53;;;15.56;29.34
85735;BME280;76179;42.316;22.856;2024-03-23T10:42:38;94214.41;;;15.87;29.27
85735;BME280;76179;42.316;22.856;2024-03-23T10:45:04;94206.75;;;16.06;29.40
85735;BME280;76179;42.316;22.856;2024-03-23T10:47:31;94195.47;;;16.04;28.22
85735;BME280;76179;42.316;22.856;2024-03-23T10:49:58;94211.91;;;15.89;28.30
85735;BME280;76179;42.316;22.856;2024-03-23T10:52:23;94198.13;;;15.98;28.26
85735;BME280;76179;42.316;22.856;2024-03-23T10:54:51;94190.31;;;16.21;28.07
85735;BME280;76179;42.316;22.856;2024-03-23T10:57:21;94187.88;;;16.37;27.45
85735;BME280;76179;42.316;22.856;2024-03-23T10:59:48;94174.31;;;16.34;27.01
85735;BME280;76179;42.316;22.856;2024-03-23T11:02:19;94178.69;;;16.70;27.63
85735;BME280;76179;42.316;22.856;2024-03-23T11:04:45;94175.84;;;16.79;27.59
85735;BME280;76179;42.316;22.856;2024-03-23T11:07:32;94168.41;;;17.00;28.19
85735;BME280;76179;42.316;22.856;2024-03-23T11:09:59;94168.13;;;16.98;27.67
85735;BME280;76179;42.316;22.856;2024-03-23T11:12:29;94164.41;;;17.15;28.78
85735;BME280;76179;42.316;22.856;2024-03-23T11:17:27;94147.97;;;17.21;26.17
85735;BME280;76179;42.316;22.856;2024-03-23T11:20:02;94150.94;;;17.38;28.05
85735;BME280;76179;42.316;22.856;2024-03-23T11:22:43;94136.81;;;17.65;25.81
85735;BME280;76179;42.316;22.856;2024-03-23T11:25:19;94138.84;;;17.90;26.27
85735;BME280;76179;42.316;22.856;2024-03-23T11:27:52;94122.81;;;18.15;26.44
85735;BME280;76179;42.316;22.856;2024-03-23T11:30:20;94118.84;;;18.47;25.57
85735;BME280;76179;42.316;22.856;2024-03-23T11:32:48;94125.41;;;18.50;23.30
85735;BME280;76179;42.316;22.856;2024-03-23T11:35:29;94124.00;;;18.08;22.75
85735;BME280;76179;42.316;22.856;2024-03-23T11:38:13;94112.47;;;18.35;25.39
85735;BME280;76179;42.316;22.856;2024-03-23T11:43:05;94101.69;;;18.95;22.29
85735;BME280;76179;42.316;22.856;2024-03-23T11:45:36;94101.25;;;19.02;23.84
85735;BME280;76179;42.316;22.856;2024-03-23T11:48:03;94094.66;;;18.94;23.46
85735;BME280;76179;42.316;22.856;2024-03-23T11:50:28;94090.16;;;18.59;23.89
85735;BME280;76179;42.316;22.856;2024-03-23T11:53:21;94079.88;;;18.60;23.17
85735;BME280;76179;42.316;22.856;2024-03-23T11:55:55;94079.22;;;18.70;22.64
85735;BME280;76179;42.316;22.856;2024-03-23T11:58:22;94069.72;;;18.71;23.77
85735;BME280;76179;42.316;22.856;2024-03-23T12:00:58;94060.72;;;19.19;23.62
85735;BME280;76179;42.316;22.856;2024-03-23T12:03:24;94072.19;;;19.60;22.28
85735;BME280;76179;42.316;22.856;2024-03-23T12:06:01;94062.63;;;19.50;22.74
85735;BME280;76179;42.316;22.856;2024-03-23T12:08:34;94052.03;;;19.43;22.15
85735;BME280;76179;42.316;22.856;2024-03-23T12:11:06;94038.56;;;19.67;22.57
85735;BME280;76179;42.316;22.856;2024-03-23T12:13:33;94042.75;;;19.46;21.91
85735;BME280;76179;42.316;22.856;2024-03-23T12:16:11;94048.84;;;19.61;22.51
85735;BME280;76179;42.316;22.856;2024-03-23T12:18:38;94044.63;;;19.82;23.42
85735;BME280;76179;42.316;22.856;2024-03-23T12:21:05;94040.41;;;20.15;22.93
85735;BME280;76179;42.316;22.856;2024-03-23T12:23:31;94030.63;;;20.58;23.78
85735;BME280;76179;42.316;22.856;2024-03-23T12:25:57;94029.84;;;20.80;20.97
85735;BME280;76179;42.316;22.856;2024-03-23T12:28:22;94025.84;;;20.64;23.03
85735;BME280;76179;42.316;22.856;2024-03-23T12:30:48;94038.16;;;20.52;22.41
85735;BME280;76179;42.316;22.856;2024-03-23T12:33:13;94035.66;;;20.65;21.61
85735;BME280;76179;42.316;22.856;2024-03-23T12:35:39;94017.06;;;20.38;21.16
85735;BME280;76179;42.316;22.856;2024-03-23T12:38:04;94010.50;;;20.74;19.88
85735;BME280;76179;42.316;22.856;2024-03-23T12:40:29;94008.34;;;21.25;23.11
85735;BME280;76179;42.316;22.856;2024-03-23T12:42:55;94024.16;;;21.88;20.21
85735;BME280;76179;42.316;22.856;2024-03-23T12:45:23;94012.28;;;21.93;19.50
85735;BME280;76179;42.316;22.856;2024-03-23T12:47:49;94012.91;;;22.16;19.21
85735;BME280;76179;42.316;22.856;2024-03-23T12:50:17;93999.97;;;22.54;20.95
85735;BME280;76179;42.316;22.856;2024-03-23T12:52:43;94003.56;;;22.49;19.10
85735;BME280;76179;42.316;22.856;2024-03-23T12:55:08;94006.91;;;22.42;19.35
85735;BME280;76179;42.316;22.856;2024-03-23T12:57:33;93984.28;;;22.62;19.56
85735;BME280;76179;42.316;22.856;2024-03-23T12:59:59;93992.59;;;22.62;18.28
85735;BME280;76179;42.316;22.856;2024-03-23T13:02:25;93979.72;;;22.05;17.71
85735;BME280;76179;42.316;22.856;2024-03-23T13:04:52;93983.75;;;22.63;19.61
85735;BME280;76179;42.316;22.856;2024-03-23T13:07:18;93974.09;;;22.76;18.71
85735;BME280;76179;42.316;22.856;2024-03-23T13:09:44;93972.09;;;22.71;18.87
85735;BME280;76179;42.316;22.856;2024-03-23T13:12:10;93977.91;;;22.97;17.53
85735;BME280;76179;42.316;22.856;2024-03-23T13:14:37;93973.56;;;23.63;17.39
85735;BME280;76179;42.316;22.856;2024-03-23T13:17:03;93971.13;;;23.35;18.58
85735;BME280;76179;42.316;22.856;2024-03-23T13:19:29;93965.03;;;23.61;16.80
85735;BME280;76179;42.316;22.856;2024-03-23T13:22:00;93962.00;;;24.10;17.28
85735;BME280;76179;42.316;22.856;2024-03-23T13:24:26;93959.59;;;24.51;17.31
85735;BME280;76179;42.316;22.856;2024-03-23T13:26:53;93953.84;;;23.99;16.58
85735;BME280;76179;42.316;22.856;2024-03-23T13:29:19;93960.31;;;23.88;18.06
85735;BME280;76179;42.316;22.856;2024-03-23T13:31:48;93961.06;;;24.07;16.87
85735;BME280;76179;42.316;22.856;2024-03-23T13:34:14;93943.50;;;23.43;18.92
85735;BME280;76179;42.316;22.856;2024-03-23T13:36:45;93938.84;;;23.70;17.74
85735;BME280;76179;42.316;22.856;2024-03-23T13:39:12;93938.69;;;24.00;17.22
85735;BME280;76179;42.316;22.856;2024-03-23T13:44:04;93941.03;;;23.77;18.36
85735;BME280;76179;42.316;22.856;2024-03-23T13:46:30;93921.16;;;24.37;17.05
85735;BME280;76179;42.316;22.856;2024-03-23T13:48:55;93923.09;;;24.81;15.87
85735;BME280;76179;42.316;22.856;2024-03-23T13:51:24;93916.91;;;24.88;17.06
85735;BME280;76179;42.316;22.856;2024-03-23T13:53:56;93920.06;;;24.27;16.99
85735;BME280;76179;42.316;22.856;2024-03-23T13:56:24;93918.88;;;23.71;18.90